sensor_id;sensor_type;location;lat;lon;timestamp;P1;durP1;ratioP1;P2;durP2;ratioP2
14907;SDS011;7545;52.092;7.006;2022-07-29T00:00:39;1.23;;;0.80;;
14907;SDS011;7545;52.092;7.006;2022-07-29T00:03:04;1.48;;;0.60;;
14907;SDS011;7545;52.092;7.006;2022-07-29T00:05:30;5.35;;;1.23;;
14907;SDS011;7545;52.092;7.006;2022-07-29T00:07:56;3.83;;;0.85;;
14907;SDS011;7545;52.092;7.006;2022-07-29T00:10:21;1.25;;;0.93;;
14907;SDS011;7545;52.092;7.006;2022-07-29T00:12:47;1.20;;;0.70;;
14907;SDS011;7545;52.092;7.006;2022-07-29T00:15:13;2.35;;;0.80;;
14907;SDS011;7545;52.092;7.006;2022-07-29T00:17:39;2.75;;;0.80;;
14907;SDS011;7545;52.092;7.006;2022-07-29T00:20:04;2.35;;;1.05;;
14907;SDS011;7545;52.092;7.006;2022-07-29T00:22:31;2.85;;;1.10;;
14907;SDS011;7545;52.092;7.006;2022-07-29T00:24:57;2.65;;;1.02;;
14907;SDS011;7545;52.092;7.006;2022-07-29T00:27:23;2.80;;;1.92;;
14907;SDS011;7545;52.092;7.006;2022-07-29T00:29:49;1.10;;;0.60;;
14907;SDS011;7545;52.092;7.006;2022-07-29T00:32:14;3.80;;;1.10;;
14907;SDS011;7545;52.092;7.006;2022-07-29T00:34:40;2.63;;;0.80;;
14907;SDS011;7545;52.092;7.006;2022-07-29T00:37:24;1.23;;;0.80;;
14907;SDS011;7545;52.092;7.006;2022-07-29T00:39:50;1.73;;;0.70;;
14907;SDS011;7545;52.092;7.006;2022-07-29T00:42:16;1.60;;;0.80;;
14907;SDS011;7545;52.092;7.006;2022-07-29T00:44:41;1.88;;;0.77;;
14907;SDS011;7545;52.092;7.006;2022-07-29T00:47:08;1.60;;;0.63;;
14907;SDS011;7545;52.092;7.006;2022-07-29T00:49:35;1.50;;;1.00;;
14907;SDS011;7545;52.092;7.006;2022-07-29T00:52:02;3.28;;;0.90;;
14907;SDS011;7545;52.092;7.006;2022-07-29T00:54:28;1.63;;;0.80;;
14907;SDS011;7545;52.092;7.006;2022-07-29T00:56:55;3.70;;;1.05;;
14907;SDS011;7545;52.092;7.006;2022-07-29T00:59:24;3.70;;;1.60;;
14907;SDS011;7545;52.092;7.006;2022-07-29T01:01:53;2.15;;;1.10;;
14907;SDS011;7545;52.092;7.006;2022-07-29T01:04:20;3.30;;;0.93;;
14907;SDS011;7545;52.092;7.006;2022-07-29T01:06:46;4.03;;;1.23;;
14907;SDS011;7545;52.092;7.006;2022-07-29T01:09:13;1.88;;;1.20;;
14907;SDS011;7545;52.092;7.006;2022-07-29T01:11:40;2.05;;;0.73;;
14907;SDS011;7545;52.092;7.006;2022-07-29T01:14:08;3.05;;;1.17;;
14907;SDS011;7545;52.092;7.006;2022-07-29T01:16:40;4.45;;;1.10;;
14907;SDS011;7545;52.092;7.006;2022-07-29T01:22:13;5.22;;;1.30;;
14907;SDS011;7545;52.092;7.006;2022-07-29T01:25:32;2.45;;;0.90;;
14907;SDS011;7545;52.092;7.006;2022-07-29T01:30:08;1.38;;;0.88;;
14907;SDS011;7545;52.092;7.006;2022-07-29T01:32:36;2.90;;;1.05;;
14907;SDS011;7545;52.092;7.006;2022-07-29T01:37:37;2.15;;;0.90;;
14907;SDS011;7545;52.092;7.006;2022-07-29T01:43:17;2.17;;;0.90;;
14907;SDS011;7545;52.092;7.006;2022-07-29T01:45:50;0.80;;;0.70;;
14907;SDS011;7545;52.092;7.006;2022-07-29T01:48:39;3.15;;;1.08;;
14907;SDS011;7545;52.092;7.006;2022-07-29T01:51:54;2.33;;;0.98;;
14907;SDS011;7545;52.092;7.006;2022-07-29T01:54:40;1.70;;;0.90;;
14907;SDS011;7545;52.092;7.006;2022-07-29T01:57:11;1.52;;;0.90;;
14907;SDS011;7545;52.092;7.006;2022-07-29T01:59:39;1.65;;;1.00;;
14907;SDS011;7545;52.092;7.006;2022-07-29T02:02:06;3.15;;;0.80;;
14907;SDS011;7545;52.092;7.006;2022-07-29T02:04:35;2.75;;;1.00;;
14907;SDS011;7545;52.092;7.006;2022-07-29T02:07:03;2.70;;;1.10;;
14907;SDS011;7545;52.092;7.006;2022-07-29T02:09:33;1.80;;;0.90;;
14907;SDS011;7545;52.092;7.006;2022-07-29T02:12:02;2.35;;;0.82;;
14907;SDS011;7545;52.092;7.006;2022-07-29T02:14:30;5.13;;;0.85;;
14907;SDS011;7545;52.092;7.006;2022-07-29T02:17:01;1.23;;;0.93;;
14907;SDS011;7545;52.092;7.006;2022-07-29T02:19:27;2.90;;;1.00;;
14907;SDS011;7545;52.092;7.006;2022-07-29T02:21:54;1.85;;;1.23;;
14907;SDS011;7545;52.092;7.006;2022-07-29T02:24:22;1.17;;;1.02;;
14907;SDS011;7545;52.092;7.006;2022-07-29T02:26:50;1.98;;;1.00;;
14907;SDS011;7545;52.092;7.006;2022-07-29T02:29:18;1.20;;;0.75;;
14907;SDS011;7545;52.092;7.006;2022-07-29T02:31:47;3.60;;;1.13;;
14907;SDS011;7545;52.092;7.006;2022-07-29T02:34:15;2.88;;;1.20;;
14907;SDS011;7545;52.092;7.006;2022-07-29T02:36:43;1.50;;;1.10;;
14907;SDS011;7545;52.092;7.006;2022-07-29T02:39:10;2.40;;;1.00;;
14907;SDS011;7545;52.092;7.006;2022-07-29T02:41:44;2.45;;;1.20;;
14907;SDS011;7545;52.092;7.006;2022-07-29T02:44:20;2.65;;;1.10;;
14907;SDS011;7545;52.092;7.006;2022-07-29T02:46:50;5.65;;;1.00;;
14907;SDS011;7545;52.092;7.006;2022-07-29T02:51:51;2.25;;;1.10;;
14907;SDS011;7545;52.092;7.006;2022-07-29T02:54:22;2.08;;;1.15;;
14907;SDS011;7545;52.092;7.006;2022-07-29T02:57:11;3.10;;;1.45;;
14907;SDS011;7545;52.092;7.006;2022-07-29T02:59:43;1.40;;;1.10;;
14907;SDS011;7545;52.092;7.006;2022-07-29T03:02:12;4.22;;;1.77;;
14907;SDS011;7545;52.092;7.006;2022-07-29T03:04:40;1.73;;;0.88;;
14907;SDS011;7545;52.092;7.006;2022-07-29T03:07:07;1.30;;;1.20;;
14907;SDS011;7545;52.092;7.006;2022-07-29T03:09:35;2.58;;;1.45;;
14907;SDS011;7545;52.092;7.006;2022-07-29T03:12:01;3.88;;;1.10;;
14907;SDS011;7545;52.092;7.006;2022-07-29T03:14:28;2.35;;;1.75;;
14907;SDS011;7545;52.092;7.006;2022-07-29T03:16:55;3.97;;;1.02;;
14907;SDS011;7545;52.092;7.006;2022-07-29T03:19:22;1.25;;;0.88;;
14907;SDS011;7545;52.092;7.006;2022-07-29T03:21:48;3.35;;;1.05;;
14907;SDS011;7545;52.092;7.006;2022-07-29T03:24:33;5.13;;;0.90;;
14907;SDS011;7545;52.092;7.006;2022-07-29T03:27:00;5.70;;;1.20;;
14907;SDS011;7545;52.092;7.006;2022-07-29T03:29:26;4.85;;;1.35;;
14907;SDS011;7545;52.092;7.006;2022-07-29T03:31:52;1.63;;;1.20;;
14907;SDS011;7545;52.092;7.006;2022-07-29T03:34:18;3.00;;;1.50;;
14907;SDS011;7545;52.092;7.006;2022-07-29T03:36:43;3.53;;;1.70;;
14907;SDS011;7545;52.092;7.006;2022-07-29T03:39:11;2.47;;;1.77;;
14907;SDS011;7545;52.092;7.006;2022-07-29T03:41:41;2.55;;;1.17;;
14907;SDS011;7545;52.092;7.006;2022-07-29T03:44:08;2.33;;;1.23;;
14907;SDS011;7545;52.092;7.006;2022-07-29T03:46:35;3.33;;;1.50;;
14907;SDS011;7545;52.092;7.006;2022-07-29T03:49:02;4.13;;;1.40;;
14907;SDS011;7545;52.092;7.006;2022-07-29T03:51:29;4.25;;;1.65;;
14907;SDS011;7545;52.092;7.006;2022-07-29T03:53:56;3.25;;;1.40;;
14907;SDS011;7545;52.092;7.006;2022-07-29T03:56:22;0.98;;;0.70;;
14907;SDS011;7545;52.092;7.006;2022-07-29T03:58:52;2.92;;;1.02;;
14907;SDS011;7545;52.092;7.006;2022-07-29T04:01:18;1.15;;;1.02;;
14907;SDS011;7545;52.092;7.006;2022-07-29T04:03:45;1.70;;;1.15;;
14907;SDS011;7545;52.092;7.006;2022-07-29T04:06:11;1.70;;;1.30;;
14907;SDS011;7545;52.092;7.006;2022-07-29T04:08:37;2.88;;;0.93;;
14907;SDS011;7545;52.092;7.006;2022-07-29T04:11:03;1.67;;;1.10;;
14907;SDS011;7545;52.092;7.006;2022-07-29T04:13:29;2.40;;;1.13;;
14907;SDS011;7545;52.092;7.006;2022-07-29T04:15:56;3.47;;;1.77;;
14907;SDS011;7545;52.092;7.006;2022-07-29T04:18:22;1.20;;;0.90;;
14907;SDS011;7545;52.092;7.006;2022-07-29T04:20:48;2.28;;;1.27;;
14907;SDS011;7545;52.092;7.006;2022-07-29T04:23:13;2.65;;;1.17;;
14907;SDS011;7545;52.092;7.006;2022-07-29T04:25:39;3.03;;;1.52;;
14907;SDS011;7545;52.092;7.006;2022-07-29T04:28:06;2.95;;;1.70;;
14907;SDS011;7545;52.092;7.006;2022-07-29T04:30:33;3.88;;;1.92;;
14907;SDS011;7545;52.092;7.006;2022-07-29T04:32:59;2.25;;;1.15;;
14907;SDS011;7545;52.092;7.006;2022-07-29T04:35:30;2.08;;;1.05;;
14907;SDS011;7545;52.092;7.006;2022-07-29T04:37:58;2.95;;;1.33;;
14907;SDS011;7545;52.092;7.006;2022-07-29T04:40:24;3.05;;;1.65;;
14907;SDS011;7545;52.092;7.006;2022-07-29T04:42:49;4.60;;;1.20;;
14907;SDS011;7545;52.092;7.006;2022-07-29T04:45:15;1.80;;;1.33;;
14907;SDS011;7545;52.092;7.006;2022-07-29T04:47:41;2.15;;;1.17;;
14907;SDS011;7545;52.092;7.006;2022-07-29T04:50:07;3.65;;;1.20;;
14907;SDS011;7545;52.092;7.006;2022-07-29T04:52:34;4.40;;;1.70;;
14907;SDS011;7545;52.092;7.006;2022-07-29T04:55:00;3.60;;;1.30;;
14907;SDS011;7545;52.092;7.006;2022-07-29T04:57:26;1.92;;;1.20;;
14907;SDS011;7545;52.092;7.006;2022-07-29T04:59:52;3.70;;;1.58;;
14907;SDS011;7545;52.092;7.006;2022-07-29T05:02:18;1.38;;;1.27;;
14907;SDS011;7545;52.092;7.006;2022-07-29T05:04:43;5.47;;;1.90;;
14907;SDS011;7545;52.092;7.006;2022-07-29T05:07:09;1.30;;;1.17;;
14907;SDS011;7545;52.092;7.006;2022-07-29T05:09:35;3.28;;;1.02;;
14907;SDS011;7545;52.092;7.006;2022-07-29T05:12:00;4.07;;;1.25;;
14907;SDS011;7545;52.092;7.006;2022-07-29T05:14:26;2.97;;;1.33;;
14907;SDS011;7545;52.092;7.006;2022-07-29T05:16:52;1.30;;;1.17;;
14907;SDS011;7545;52.092;7.006;2022-07-29T05:19:21;1.25;;;1.10;;
14907;SDS011;7545;52.092;7.006;2022-07-29T05:21:47;4.25;;;1.45;;
14907;SDS011;7545;52.092;7.006;2022-07-29T05:24:12;3.70;;;1.42;;
14907;SDS011;7545;52.092;7.006;2022-07-29T05:26:38;2.13;;;1.30;;
14907;SDS011;7545;52.092;7.006;2022-07-29T05:29:04;2.50;;;1.10;;
14907;SDS011;7545;52.092;7.006;2022-07-29T05:31:30;2.10;;;1.30;;
14907;SDS011;7545;52.092;7.006;2022-07-29T05:33:55;3.65;;;1.15;;
14907;SDS011;7545;52.092;7.006;2022-07-29T05:36:21;3.67;;;1.20;;
14907;SDS011;7545;52.092;7.006;2022-07-29T05:38:47;4.93;;;1.30;;
14907;SDS011;7545;52.092;7.006;2022-07-29T05:41:12;1.88;;;1.42;;
14907;SDS011;7545;52.092;7.006;2022-07-29T05:43:38;2.50;;;1.20;;
14907;SDS011;7545;52.092;7.006;2022-07-29T05:46:04;1.48;;;1.30;;
14907;SDS011;7545;52.092;7.006;2022-07-29T05:48:29;2.28;;;1.30;;
14907;SDS011;7545;52.092;7.006;2022-07-29T05:50:55;3.33;;;1.77;;
14907;SDS011;7545;52.092;7.006;2022-07-29T05:53:21;3.30;;;1.45;;
14907;SDS011;7545;52.092;7.006;2022-07-29T05:55:47;3.80;;;1.10;;
14907;SDS011;7545;52.092;7.006;2022-07-29T05:58:13;3.42;;;1.45;;
14907;SDS011;7545;52.092;7.006;2022-07-29T06:00:39;3.17;;;1.42;;
14907;SDS011;7545;52.092;7.006;2022-07-29T06:03:05;5.47;;;1.83;;
14907;SDS011;7545;52.092;7.006;2022-07-29T06:05:30;5.13;;;1.52;;
14907;SDS011;7545;52.092;7.006;2022-07-29T06:07:56;3.72;;;1.30;;
14907;SDS011;7545;52.092;7.006;2022-07-29T06:10:22;3.10;;;1.48;;
14907;SDS011;7545;52.092;7.006;2022-07-29T06:12:47;2.95;;;1.90;;
14907;SDS011;7545;52.092;7.006;2022-07-29T06:15:13;3.03;;;1.58;;
14907;SDS011;7545;52.092;7.006;2022-07-29T06:17:39;3.53;;;1.83;;
14907;SDS011;7545;52.092;7.006;2022-07-29T06:20:04;2.17;;;1.95;;
14907;SDS011;7545;52.092;7.006;2022-07-29T06:22:30;4.43;;;1.75;;
14907;SDS011;7545;52.092;7.006;2022-07-29T06:24:56;1.73;;;1.38;;
14907;SDS011;7545;52.092;7.006;2022-07-29T06:27:21;2.72;;;1.48;;
14907;SDS011;7545;52.092;7.006;2022-07-29T06:29:47;4.25;;;2.13;;
14907;SDS011;7545;52.092;7.006;2022-07-29T06:32:13;2.67;;;2.25;;
14907;SDS011;7545;52.092;7.006;2022-07-29T06:34:38;2.22;;;1.45;;
14907;SDS011;7545;52.092;7.006;2022-07-29T06:37:07;4.18;;;2.03;;
14907;SDS011;7545;52.092;7.006;2022-07-29T06:39:36;5.18;;;1.90;;
14907;SDS011;7545;52.092;7.006;2022-07-29T06:42:03;2.72;;;1.83;;
14907;SDS011;7545;52.092;7.006;2022-07-29T06:44:29;3.10;;;1.40;;
14907;SDS011;7545;52.092;7.006;2022-07-29T06:46:55;5.15;;;1.70;;
14907;SDS011;7545;52.092;7.006;2022-07-29T06:49:21;2.55;;;1.40;;
14907;SDS011;7545;52.092;7.006;2022-07-29T06:51:48;4.18;;;1.70;;
14907;SDS011;7545;52.092;7.006;2022-07-29T06:54:14;5.28;;;1.42;;
14907;SDS011;7545;52.092;7.006;2022-07-29T06:56:39;4.53;;;1.70;;
14907;SDS011;7545;52.092;7.006;2022-07-29T06:59:10;3.55;;;1.77;;
14907;SDS011;7545;52.092;7.006;2022-07-29T07:01:37;3.53;;;2.10;;
14907;SDS011;7545;52.092;7.006;2022-07-29T07:04:04;3.08;;;1.75;;
14907;SDS011;7545;52.092;7.006;2022-07-29T07:06:29;1.63;;;1.52;;
14907;SDS011;7545;52.092;7.006;2022-07-29T07:08:55;2.35;;;2.10;;
14907;SDS011;7545;52.092;7.006;2022-07-29T07:11:21;2.70;;;1.90;;
14907;SDS011;7545;52.092;7.006;2022-07-29T07:13:47;2.75;;;1.73;;
14907;SDS011;7545;52.092;7.006;2022-07-29T07:16:12;6.90;;;2.30;;
14907;SDS011;7545;52.092;7.006;2022-07-29T07:18:38;2.80;;;1.55;;
14907;SDS011;7545;52.092;7.006;2022-07-29T07:21:03;3.53;;;1.90;;
14907;SDS011;7545;52.092;7.006;2022-07-29T07:23:30;4.40;;;2.25;;
14907;SDS011;7545;52.092;7.006;2022-07-29T07:25:56;6.55;;;1.90;;
14907;SDS011;7545;52.092;7.006;2022-07-29T07:28:22;3.75;;;1.77;;
14907;SDS011;7545;52.092;7.006;2022-07-29T07:30:47;2.92;;;2.17;;
14907;SDS011;7545;52.092;7.006;2022-07-29T07:33:13;5.50;;;1.95;;
14907;SDS011;7545;52.092;7.006;2022-07-29T07:35:39;3.05;;;1.70;;
14907;SDS011;7545;52.092;7.006;2022-07-29T07:38:05;2.53;;;1.88;;
14907;SDS011;7545;52.092;7.006;2022-07-29T07:40:31;3.08;;;2.20;;
14907;SDS011;7545;52.092;7.006;2022-07-29T07:42:57;5.07;;;2.28;;
14907;SDS011;7545;52.092;7.006;2022-07-29T07:45:22;2.53;;;1.73;;
14907;SDS011;7545;52.092;7.006;2022-07-29T07:47:48;4.07;;;2.10;;
14907;SDS011;7545;52.092;7.006;2022-07-29T07:50:14;9.00;;;3.38;;
14907;SDS011;7545;52.092;7.006;2022-07-29T07:52:49;2.35;;;1.73;;
14907;SDS011;7545;52.092;7.006;2022-07-29T07:55:17;3.50;;;1.92;;
14907;SDS011;7545;52.092;7.006;2022-07-29T07:57:43;5.13;;;2.30;;
14907;SDS011;7545;52.092;7.006;2022-07-29T08:00:09;4.82;;;2.00;;
14907;SDS011;7545;52.092;7.006;2022-07-29T08:02:37;2.50;;;1.95;;
14907;SDS011;7545;52.092;7.006;2022-07-29T08:05:04;2.47;;;2.17;;
14907;SDS011;7545;52.092;7.006;2022-07-29T08:07:30;3.90;;;2.40;;
14907;SDS011;7545;52.092;7.006;2022-07-29T08:09:55;6.10;;;1.88;;
14907;SDS011;7545;52.092;7.006;2022-07-29T08:12:21;4.30;;;2.08;;
14907;SDS011;7545;52.092;7.006;2022-07-29T08:14:47;5.43;;;2.22;;
14907;SDS011;7545;52.092;7.006;2022-07-29T08:17:12;2.80;;;2.10;;
14907;SDS011;7545;52.092;7.006;2022-07-29T08:19:38;2.40;;;1.80;;
14907;SDS011;7545;52.092;7.006;2022-07-29T08:22:03;3.03;;;2.13;;
14907;SDS011;7545;52.092;7.006;2022-07-29T08:24:29;5.20;;;2.20;;
14907;SDS011;7545;52.092;7.006;2022-07-29T08:27:17;5.43;;;2.28;;
14907;SDS011;7545;52.092;7.006;2022-07-29T08:29:44;6.57;;;2.30;;
14907;SDS011;7545;52.092;7.006;2022-07-29T08:32:09;2.70;;;2.38;;
14907;SDS011;7545;52.092;7.006;2022-07-29T08:34:35;2.92;;;2.00;;
14907;SDS011;7545;52.092;7.006;2022-07-29T08:37:01;5.75;;;2.50;;
14907;SDS011;7545;52.092;7.006;2022-07-29T08:39:26;3.25;;;2.58;;
14907;SDS011;7545;52.092;7.006;2022-07-29T08:41:52;7.53;;;2.40;;
14907;SDS011;7545;52.092;7.006;2022-07-29T08:44:18;3.30;;;3.00;;
14907;SDS011;7545;52.092;7.006;2022-07-29T08:46:44;3.28;;;2.10;;
14907;SDS011;7545;52.092;7.006;2022-07-29T08:49:10;3.65;;;2.40;;
14907;SDS011;7545;52.092;7.006;2022-07-29T08:51:36;4.57;;;2.67;;
14907;SDS011;7545;52.092;7.006;2022-07-29T08:54:05;5.85;;;2.63;;
14907;SDS011;7545;52.092;7.006;2022-07-29T08:56:31;3.50;;;2.60;;
14907;SDS011;7545;52.092;7.006;2022-07-29T08:58:58;4.78;;;2.53;;
14907;SDS011;7545;52.092;7.006;2022-07-29T09:01:27;3.80;;;2.15;;
14907;SDS011;7545;52.092;7.006;2022-07-29T09:03:55;3.95;;;2.58;;
14907;SDS011;7545;52.092;7.006;2022-07-29T09:06:21;2.55;;;2.35;;
14907;SDS011;7545;52.092;7.006;2022-07-29T09:08:51;4.75;;;2.28;;
14907;SDS011;7545;52.092;7.006;2022-07-29T09:11:17;6.20;;;2.40;;
14907;SDS011;7545;52.092;7.006;2022-07-29T09:13:43;5.85;;;2.33;;
14907;SDS011;7545;52.092;7.006;2022-07-29T09:16:08;3.65;;;2.78;;
14907;SDS011;7545;52.092;7.006;2022-07-29T09:18:41;5.50;;;2.78;;
14907;SDS011;7545;52.092;7.006;2022-07-29T09:21:13;11.18;;;3.55;;
14907;SDS011;7545;52.092;7.006;2022-07-29T09:24:09;4.38;;;2.88;;
14907;SDS011;7545;52.092;7.006;2022-07-29T09:26:37;2.97;;;2.67;;
14907;SDS011;7545;52.092;7.006;2022-07-29T09:29:09;8.13;;;2.85;;
14907;SDS011;7545;52.092;7.006;2022-07-29T09:31:37;3.35;;;2.47;;
14907;SDS011;7545;52.092;7.006;2022-07-29T09:34:05;5.35;;;2.78;;
14907;SDS011;7545;52.092;7.006;2022-07-29T09:36:37;9.30;;;4.15;;
14907;SDS011;7545;52.092;7.006;2022-07-29T09:39:07;5.28;;;3.95;;
14907;SDS011;7545;52.092;7.006;2022-07-29T09:41:46;4.13;;;2.80;;
14907;SDS011;7545;52.092;7.006;2022-07-29T09:44:18;5.38;;;2.70;;
14907;SDS011;7545;52.092;7.006;2022-07-29T09:46:56;3.97;;;2.58;;
14907;SDS011;7545;52.092;7.006;2022-07-29T09:49:27;4.30;;;3.17;;
14907;SDS011;7545;52.092;7.006;2022-07-29T09:54:32;4.97;;;3.03;;
14907;SDS011;7545;52.092;7.006;2022-07-29T09:57:02;5.18;;;3.17;;
14907;SDS011;7545;52.092;7.006;2022-07-29T09:59:33;7.40;;;3.25;;
14907;SDS011;7545;52.092;7.006;2022-07-29T10:01:59;6.60;;;3.10;;
14907;SDS011;7545;52.092;7.006;2022-07-29T10:04:39;6.03;;;3.45;;
14907;SDS011;7545;52.092;7.006;2022-07-29T10:07:06;4.18;;;2.75;;
14907;SDS011;7545;52.092;7.006;2022-07-29T10:09:32;5.60;;;3.10;;
14907;SDS011;7545;52.092;7.006;2022-07-29T10:12:08;4.68;;;3.25;;
14907;SDS011;7545;52.092;7.006;2022-07-29T10:14:38;3.17;;;2.70;;
14907;SDS011;7545;52.092;7.006;2022-07-29T10:17:04;4.40;;;3.05;;
14907;SDS011;7545;52.092;7.006;2022-07-29T10:19:31;4.60;;;2.72;;
14907;SDS011;7545;52.092;7.006;2022-07-29T10:21:58;9.57;;;4.28;;
14907;SDS011;7545;52.092;7.006;2022-07-29T10:24:25;3.90;;;3.08;;
14907;SDS011;7545;52.092;7.006;2022-07-29T10:26:52;4.85;;;2.80;;
14907;SDS011;7545;52.092;7.006;2022-07-29T10:29:19;6.57;;;3.60;;
14907;SDS011;7545;52.092;7.006;2022-07-29T10:32:32;3.42;;;2.90;;
14907;SDS011;7545;52.092;7.006;2022-07-29T10:39:50;5.13;;;2.80;;
14907;SDS011;7545;52.092;7.006;2022-07-29T10:42:19;4.15;;;2.97;;
14907;SDS011;7545;52.092;7.006;2022-07-29T10:44:48;4.65;;;3.00;;
14907;SDS011;7545;52.092;7.006;2022-07-29T10:47:23;3.95;;;3.35;;
14907;SDS011;7545;52.092;7.006;2022-07-29T10:50:00;4.78;;;2.75;;
14907;SDS011;7545;52.092;7.006;2022-07-29T10:52:51;4.85;;;3.00;;
14907;SDS011;7545;52.092;7.006;2022-07-29T10:55:37;3.92;;;3.17;;
14907;SDS011;7545;52.092;7.006;2022-07-29T10:58:14;3.80;;;2.90;;
14907;SDS011;7545;52.092;7.006;2022-07-29T11:00:52;3.28;;;2.97;;
14907;SDS011;7545;52.092;7.006;2022-07-29T11:06:13;5.22;;;3.08;;
14907;SDS011;7545;52.092;7.006;2022-07-29T11:08:39;5.82;;;3.60;;
14907;SDS011;7545;52.092;7.006;2022-07-29T11:13:50;5.85;;;3.20;;
14907;SDS011;7545;52.092;7.006;2022-07-29T11:16:18;5.85;;;3.83;;
14907;SDS011;7545;52.092;7.006;2022-07-29T11:21:38;3.55;;;3.28;;
14907;SDS011;7545;52.092;7.006;2022-07-29T11:24:15;3.95;;;3.03;;
14907;SDS011;7545;52.092;7.006;2022-07-29T11:26:42;6.40;;;3.55;;
14907;SDS011;7545;52.092;7.006;2022-07-29T11:31:50;5.93;;;3.17;;
14907;SDS011;7545;52.092;7.006;2022-07-29T11:34:27;6.10;;;2.75;;
14907;SDS011;7545;52.092;7.006;2022-07-29T11:39:36;3.60;;;3.30;;
14907;SDS011;7545;52.092;7.006;2022-07-29T11:42:57;5.30;;;3.75;;
14907;SDS011;7545;52.092;7.006;2022-07-29T11:45:01;8.07;;;3.30;;
14907;SDS011;7545;52.092;7.006;2022-07-29T11:47:30;4.35;;;3.17;;
14907;SDS011;7545;52.092;7.006;2022-07-29T11:49:57;4.22;;;3.80;;
14907;SDS011;7545;52.092;7.006;2022-07-29T11:52:30;6.45;;;3.30;;
14907;SDS011;7545;52.092;7.006;2022-07-29T11:55:03;3.70;;;3.20;;
14907;SDS011;7545;52.092;7.006;2022-07-29T11:57:31;5.57;;;3.30;;
14907;SDS011;7545;52.092;7.006;2022-07-29T11:59:58;5.72;;;3.92;;
14907;SDS011;7545;52.092;7.006;2022-07-29T12:02:25;5.32;;;3.35;;
14907;SDS011;7545;52.092;7.006;2022-07-29T12:05:04;5.55;;;2.90;;
14907;SDS011;7545;52.092;7.006;2022-07-29T12:07:31;6.63;;;3.00;;
14907;SDS011;7545;52.092;7.006;2022-07-29T12:09:59;4.07;;;2.97;;
14907;SDS011;7545;52.092;7.006;2022-07-29T12:12:25;5.65;;;3.22;;
14907;SDS011;7545;52.092;7.006;2022-07-29T12:14:51;4.93;;;2.83;;
14907;SDS011;7545;52.092;7.006;2022-07-29T12:17:50;5.15;;;3.10;;
14907;SDS011;7545;52.092;7.006;2022-07-29T12:20:09;4.07;;;3.33;;
14907;SDS011;7545;52.092;7.006;2022-07-29T12:22:37;3.10;;;2.58;;
14907;SDS011;7545;52.092;7.006;2022-07-29T12:27:33;8.10;;;4.07;;
14907;SDS011;7545;52.092;7.006;2022-07-29T12:30:03;4.60;;;3.08;;
14907;SDS011;7545;52.092;7.006;2022-07-29T12:32:43;7.47;;;2.97;;
14907;SDS011;7545;52.092;7.006;2022-07-29T12:35:14;6.97;;;3.10;;
14907;SDS011;7545;52.092;7.006;2022-07-29T12:37:42;5.88;;;3.47;;
14907;SDS011;7545;52.092;7.006;2022-07-29T12:40:10;6.28;;;4.00;;
14907;SDS011;7545;52.092;7.006;2022-07-29T12:42:38;4.80;;;3.50;;
14907;SDS011;7545;52.092;7.006;2022-07-29T12:45:04;5.03;;;2.80;;
14907;SDS011;7545;52.092;7.006;2022-07-29T12:47:31;3.20;;;2.90;;
14907;SDS011;7545;52.092;7.006;2022-07-29T12:50:14;4.50;;;3.42;;
14907;SDS011;7545;52.092;7.006;2022-07-29T12:52:42;4.22;;;2.92;;
14907;SDS011;7545;52.092;7.006;2022-07-29T12:55:09;5.43;;;3.28;;
14907;SDS011;7545;52.092;7.006;2022-07-29T12:57:45;3.63;;;2.80;;
14907;SDS011;7545;52.092;7.006;2022-07-29T13:00:21;6.13;;;4.03;;
14907;SDS011;7545;52.092;7.006;2022-07-29T13:02:54;5.72;;;4.07;;
14907;SDS011;7545;52.092;7.006;2022-07-29T13:05:24;4.57;;;3.05;;
14907;SDS011;7545;52.092;7.006;2022-07-29T13:08:11;4.78;;;3.40;;
14907;SDS011;7545;52.092;7.006;2022-07-29T13:10:43;5.13;;;2.83;;
14907;SDS011;7545;52.092;7.006;2022-07-29T13:13:10;4.15;;;2.60;;
14907;SDS011;7545;52.092;7.006;2022-07-29T13:15:40;4.05;;;1.90;;
14907;SDS011;7545;52.092;7.006;2022-07-29T13:20:55;4.13;;;2.22;;
14907;SDS011;7545;52.092;7.006;2022-07-29T13:23:21;4.22;;;3.20;;
14907;SDS011;7545;52.092;7.006;2022-07-29T13:25:47;5.13;;;2.70;;
14907;SDS011;7545;52.092;7.006;2022-07-29T13:28:13;3.92;;;2.08;;
14907;SDS011;7545;52.092;7.006;2022-07-29T13:30:39;6.25;;;2.78;;
14907;SDS011;7545;52.092;7.006;2022-07-29T13:33:06;4.05;;;2.80;;
14907;SDS011;7545;52.092;7.006;2022-07-29T13:35:31;3.78;;;2.58;;
14907;SDS011;7545;52.092;7.006;2022-07-29T13:37:57;4.03;;;2.15;;
14907;SDS011;7545;52.092;7.006;2022-07-29T13:40:23;6.55;;;2.10;;
14907;SDS011;7545;52.092;7.006;2022-07-29T13:42:49;4.57;;;2.60;;
14907;SDS011;7545;52.092;7.006;2022-07-29T13:45:15;4.55;;;2.13;;
14907;SDS011;7545;52.092;7.006;2022-07-29T13:47:40;3.28;;;2.50;;
14907;SDS011;7545;52.092;7.006;2022-07-29T13:50:07;4.03;;;3.15;;
14907;SDS011;7545;52.092;7.006;2022-07-29T13:52:35;2.75;;;2.20;;
14907;SDS011;7545;52.092;7.006;2022-07-29T13:55:01;6.53;;;2.72;;
14907;SDS011;7545;52.092;7.006;2022-07-29T13:57:27;3.65;;;2.40;;
14907;SDS011;7545;52.092;7.006;2022-07-29T13:59:53;4.80;;;2.55;;
14907;SDS011;7545;52.092;7.006;2022-07-29T14:02:19;4.75;;;2.65;;
14907;SDS011;7545;52.092;7.006;2022-07-29T14:04:45;5.03;;;2.55;;
14907;SDS011;7545;52.092;7.006;2022-07-29T14:07:10;6.00;;;2.88;;
14907;SDS011;7545;52.092;7.006;2022-07-29T14:09:36;6.97;;;2.47;;
14907;SDS011;7545;52.092;7.006;2022-07-29T14:12:02;2.83;;;2.30;;
14907;SDS011;7545;52.092;7.006;2022-07-29T14:14:28;4.40;;;2.50;;
14907;SDS011;7545;52.092;7.006;2022-07-29T14:16:54;7.38;;;2.88;;
14907;SDS011;7545;52.092;7.006;2022-07-29T14:19:20;5.18;;;2.53;;
14907;SDS011;7545;52.092;7.006;2022-07-29T14:21:46;5.47;;;2.33;;
14907;SDS011;7545;52.092;7.006;2022-07-29T14:24:11;3.03;;;2.72;;
14907;SDS011;7545;52.092;7.006;2022-07-29T14:26:37;4.43;;;2.83;;
14907;SDS011;7545;52.092;7.006;2022-07-29T14:29:03;3.03;;;2.50;;
14907;SDS011;7545;52.092;7.006;2022-07-29T14:31:28;5.53;;;3.08;;
14907;SDS011;7545;52.092;7.006;2022-07-29T14:33:54;5.03;;;2.75;;
14907;SDS011;7545;52.092;7.006;2022-07-29T14:36:20;5.25;;;2.42;;
14907;SDS011;7545;52.092;7.006;2022-07-29T14:38:45;7.55;;;2.50;;
14907;SDS011;7545;52.092;7.006;2022-07-29T14:41:11;4.35;;;2.38;;
14907;SDS011;7545;52.092;7.006;2022-07-29T14:43:37;5.03;;;2.35;;
14907;SDS011;7545;52.092;7.006;2022-07-29T14:46:02;4.13;;;3.00;;
14907;SDS011;7545;52.092;7.006;2022-07-29T14:48:28;4.65;;;2.63;;
14907;SDS011;7545;52.092;7.006;2022-07-29T14:50:54;6.05;;;3.28;;
14907;SDS011;7545;52.092;7.006;2022-07-29T14:53:21;5.57;;;2.05;;
14907;SDS011;7545;52.092;7.006;2022-07-29T14:55:47;2.55;;;2.22;;
14907;SDS011;7545;52.092;7.006;2022-07-29T14:58:12;6.38;;;2.40;;
14907;SDS011;7545;52.092;7.006;2022-07-29T15:00:38;4.28;;;2.65;;
14907;SDS011;7545;52.092;7.006;2022-07-29T15:03:04;5.90;;;2.70;;
14907;SDS011;7545;52.092;7.006;2022-07-29T15:05:30;4.05;;;2.70;;
14907;SDS011;7545;52.092;7.006;2022-07-29T15:07:56;7.30;;;2.65;;
14907;SDS011;7545;52.092;7.006;2022-07-29T15:10:23;6.15;;;3.00;;
14907;SDS011;7545;52.092;7.006;2022-07-29T15:12:51;3.67;;;2.42;;
14907;SDS011;7545;52.092;7.006;2022-07-29T15:15:16;3.55;;;2.58;;
14907;SDS011;7545;52.092;7.006;2022-07-29T15:17:42;4.22;;;1.92;;
14907;SDS011;7545;52.092;7.006;2022-07-29T15:20:08;6.20;;;1.95;;
14907;SDS011;7545;52.092;7.006;2022-07-29T15:22:34;9.75;;;3.58;;
14907;SDS011;7545;52.092;7.006;2022-07-29T15:25:03;5.80;;;2.05;;
14907;SDS011;7545;52.092;7.006;2022-07-29T15:27:30;5.18;;;2.22;;
14907;SDS011;7545;52.092;7.006;2022-07-29T15:29:55;3.38;;;1.52;;
14907;SDS011;7545;52.092;7.006;2022-07-29T15:32:21;3.15;;;1.60;;
14907;SDS011;7545;52.092;7.006;2022-07-29T15:34:47;8.52;;;2.35;;
14907;SDS011;7545;52.092;7.006;2022-07-29T15:37:12;5.97;;;2.35;;
14907;SDS011;7545;52.092;7.006;2022-07-29T15:39:38;4.88;;;1.85;;
14907;SDS011;7545;52.092;7.006;2022-07-29T15:42:03;2.72;;;1.48;;
14907;SDS011;7545;52.092;7.006;2022-07-29T15:44:29;3.55;;;1.77;;
14907;SDS011;7545;52.092;7.006;2022-07-29T15:46:55;3.88;;;1.85;;